Time;durP1;ratioP1;P1;durP2;ratioP2;P2;SDS_P1;SDS_P2;PMS_P1;PMS_P2;Temp;Humidity;BMP_temperature;BMP_pressure;BME280_temperature;BME280_humidity;BME280_pressure;Samples;Min_cycle;Max_cycle;Signal;HPM_P1;HPM_P2
2023/04/10 00:02:11;;;;;;;169.18;14.73;;;;;;;;;;5039345;28;20520;-54
2023/04/10 00:04:36;;;;;;;157.50;13.77;;;;;;;;;;5037430;28;20174;-57
2023/04/10 00:07:01;;;;;;;222.55;16.17;;;;;;;;;;5035843;28;20076;-53
2023/04/10 00:09:27;;;;;;;174.48;14.75;;;;;;;;;;5038280;28;20459;-56
2023/04/10 00:11:53;;;;;;;155.65;14.25;;;;;;;;;;5037654;28;20520;-53
2023/04/10 00:14:22;;;;;;;159.38;11.88;;;;;;;;;;5040506;28;20037;-52
2023/04/10 00:16:47;;;;;;;176.85;11.20;;;;;;;;;;5035237;28;20052;-54
2023/04/10 00:19:12;;;;;;;207.93;16.45;;;;;;;;;;5036581;28;20025;-55
2023/04/10 00:21:38;;;;;;;127.32;13.20;;;;;;;;;;5037583;28;20037;-54
2023/04/10 00:24:04;;;;;;;154.75;13.98;;;;;;;;;;5038011;28;20039;-57
2023/04/10 00:26:29;;;;;;;204.80;15.15;;;;;;;;;;5036919;28;20438;-55
2023/04/10 00:28:54;;;;;;;218.23;15.23;;;;;;;;;;5021351;28;20351;-58
2023/04/10 00:31:20;;;;;;;137.63;12.15;;;;;;;;;;5035964;28;20027;-55
2023/04/10 00:33:45;;;;;;;173.90;13.35;;;;;;;;;;5038361;28;20028;-55
2023/04/10 00:36:10;;;;;;;254.88;15.13;;;;;;;;;;5036145;28;20033;-57
2023/04/10 00:38:36;;;;;;;170.68;13.70;;;;;;;;;;5037082;28;20028;-55
2023/04/10 00:41:02;;;;;;;148.43;13.75;;;;;;;;;;5035497;28;20549;-54
2023/04/10 00:43:27;;;;;;;152.93;13.48;;;;;;;;;;5035084;28;20026;-54
2023/04/10 00:45:52;;;;;;;185.55;14.38;;;;;;;;;;5036060;28;20200;-55
2023/04/10 00:48:17;;;;;;;191.98;13.80;;;;;;;;;;5038120;28;20016;-54
2023/04/10 00:50:44;;;;;;;178.60;13.90;;;;;;;;;;5036464;28;20037;-57
2023/04/10 00:53:10;;;;;;;152.55;12.27;;;;;;;;;;5037063;28;20093;-54
2023/04/10 00:55:35;;;;;;;163.55;13.35;;;;;;;;;;5051707;28;20029;-56
2023/04/10 00:58:01;;;;;;;202.23;14.40;;;;;;;;;;5035028;28;20029;-54
2023/04/10 01:00:26;;;;;;;158.60;13.77;;;;;;;;;;5036064;28;20598;-53
2023/04/10 01:02:52;;;;;;;160.80;12.95;;;;;;;;;;5038929;28;20024;-54
2023/04/10 01:05:17;;;;;;;185.60;13.20;;;;;;;;;;5038669;28;20100;-54
2023/04/10 01:07:43;;;;;;;153.68;14.43;;;;;;;;;;5037121;28;20078;-56
2023/04/10 01:10:16;;;;;;;159.50;14.07;;;;;;;;;;5037071;28;20024;-55
2023/04/10 01:12:50;;;;;;;169.25;13.70;;;;;;;;;;5039042;28;20554;-54
2023/04/10 01:15:18;;;;;;;162.48;13.38;;;;;;;;;;5037993;28;20152;-57
2023/04/10 01:17:46;;;;;;;142.32;13.93;;;;;;;;;;5036823;28;20689;-54
2023/04/10 01:20:25;;;;;;;163.27;14.18;;;;;;;;;;5036134;28;20110;-55
2023/04/10 01:23:09;;;;;;;180.15;14.80;;;;;;;;;;5038328;28;20013;-55
2023/04/10 01:25:43;;;;;;;159.82;14.38;;;;;;;;;;5037025;28;20039;-56
2023/04/10 01:28:26;;;;;;;145.07;12.80;;;;;;;;;;5036091;28;20063;-57
2023/04/10 01:30:56;;;;;;;193.05;14.18;;;;;;;;;;5033451;28;20064;-54
2023/04/10 01:33:25;;;;;;;139.77;13.93;;;;;;;;;;5037651;28;20056;-56
2023/04/10 01:35:52;;;;;;;190.45;15.15;;;;;;;;;;5038025;28;20028;-55
2023/04/10 01:38:18;;;;;;;171.07;13.55;;;;;;;;;;5036417;28;20029;-55
2023/04/10 01:40:48;;;;;;;157.45;13.85;;;;;;;;;;5034830;28;20138;-54
2023/04/10 01:43:15;;;;;;;196.75;15.90;;;;;;;;;;5037477;28;20166;-55
2023/04/10 01:45:42;;;;;;;154.63;14.77;;;;;;;;;;5035800;28;20037;-57
2023/04/10 01:48:07;;;;;;;185.93;15.18;;;;;;;;;;5035782;28;20385;-54
2023/04/10 01:50:33;;;;;;;143.32;11.63;;;;;;;;;;5035764;28;20468;-55
2023/04/10 01:52:59;;;;;;;147.20;15.43;;;;;;;;;;5022953;28;20110;-58
2023/04/10 01:55:25;;;;;;;203.52;16.15;;;;;;;;;;5037163;28;20029;-53
2023/04/10 01:57:50;;;;;;;180.57;14.75;;;;;;;;;;5034687;28;20017;-56
2023/04/10 02:00:16;;;;;;;158.77;14.18;;;;;;;;;;5034990;28;20029;-55
2023/04/10 02:02:41;;;;;;;173.40;13.98;;;;;;;;;;5036037;28;20017;-55
2023/04/10 02:05:07;;;;;;;170.27;13.38;;;;;;;;;;5036083;28;20515;-54
2023/04/10 02:07:38;;;;;;;170.88;13.15;;;;;;;;;;5032954;28;20037;-55
2023/04/10 02:10:09;;;;;;;154.13;12.98;;;;;;;;;;5033295;28;20101;-55
2023/04/10 02:12:35;;;;;;;167.40;14.30;;;;;;;;;;5036198;28;20052;-54
2023/04/10 02:15:00;;;;;;;143.48;13.82;;;;;;;;;;5037225;28;20021;-55
2023/04/10 02:17:28;;;;;;;155.20;14.80;;;;;;;;;;5052187;28;20113;-55
2023/04/10 02:19:54;;;;;;;199.55;15.85;;;;;;;;;;5016225;28;20033;-54
2023/04/10 02:22:20;;;;;;;172.00;14.77;;;;;;;;;;5035557;28;20055;-54
2023/04/10 02:24:46;;;;;;;166.27;14.30;;;;;;;;;;5038251;28;20705;-55
2023/04/10 02:27:11;;;;;;;179.07;14.55;;;;;;;;;;5039550;28;20507;-54
2023/04/10 02:29:36;;;;;;;155.43;15.63;;;;;;;;;;5041115;28;20071;-54
2023/04/10 02:32:02;;;;;;;161.45;16.00;;;;;;;;;;5038659;28;20056;-54
2023/04/10 02:34:27;;;;;;;168.15;16.73;;;;;;;;;;5039053;28;20021;-54
2023/04/10 02:36:53;;;;;;;170.77;16.20;;;;;;;;;;5038572;28;20521;-54
2023/04/10 02:39:18;;;;;;;174.27;15.52;;;;;;;;;;5038600;28;20028;-55
2023/04/10 02:41:45;;;;;;;156.68;13.60;;;;;;;;;;5038114;28;20041;-53
2023/04/10 02:44:10;;;;;;;160.48;15.98;;;;;;;;;;5037894;28;20030;-54
2023/04/10 02:46:35;;;;;;;182.13;17.27;;;;;;;;;;5038289;28;20049;-55
2023/04/10 02:49:00;;;;;;;200.70;16.48;;;;;;;;;;5039498;28;20021;-53
2023/04/10 02:51:26;;;;;;;178.77;17.70;;;;;;;;;;5037298;28;20049;-54
2023/04/10 02:53:51;;;;;;;150.20;14.88;;;;;;;;;;5043174;28;20028;-54
2023/04/10 02:56:17;;;;;;;249.13;15.30;;;;;;;;;;5037793;28;20059;-54
2023/04/10 02:58:45;;;;;;;189.43;16.63;;;;;;;;;;5055770;28;20025;-53
2023/04/10 03:01:10;;;;;;;144.10;13.88;;;;;;;;;;5040677;28;20064;-54
2023/04/10 03:03:35;;;;;;;166.35;14.52;;;;;;;;;;5039182;28;20389;-57
2023/04/10 03:06:00;;;;;;;159.65;13.80;;;;;;;;;;5036412;28;20131;-54
2023/04/10 03:08:26;;;;;;;170.07;14.63;;;;;;;;;;5038636;28;20025;-54
2023/04/10 03:10:51;;;;;;;218.05;15.45;;;;;;;;;;5036895;28;20040;-55
2023/04/10 03:13:16;;;;;;;174.38;14.20;;;;;;;;;;5040280;28;20076;-54
2023/04/10 03:15:42;;;;;;;134.75;12.52;;;;;;;;;;5036530;28;20276;-54
2023/04/10 03:18:08;;;;;;;222.95;16.10;;;;;;;;;;5038877;28;20106;-54
2023/04/10 03:20:35;;;;;;;155.52;12.80;;;;;;;;;;5037675;28;20374;-54
2023/04/10 03:23:00;;;;;;;171.20;14.25;;;;;;;;;;5037575;28;20764;-53
2023/04/10 03:25:26;;;;;;;152.18;13.70;;;;;;;;;;5035630;28;20556;-57
2023/04/10 03:27:51;;;;;;;156.70;13.60;;;;;;;;;;5035509;28;20032;-55
2023/04/10 03:30:17;;;;;;;224.90;15.07;;;;;;;;;;5035111;28;20021;-55
2023/04/10 03:32:42;;;;;;;145.82;11.85;;;;;;;;;;5038416;28;20285;-54
2023/04/10 03:35:08;;;;;;;161.93;13.77;;;;;;;;;;5040000;28;20411;-55
2023/04/10 03:37:33;;;;;;;216.23;14.35;;;;;;;;;;5036410;28;20134;-54
2023/04/10 03:39:58;;;;;;;148.05;12.02;;;;;;;;;;5039664;28;20535;-54
2023/04/10 03:42:24;;;;;;;145.90;10.75;;;;;;;;;;5037566;28;20935;-53
2023/04/10 03:44:49;;;;;;;184.82;13.10;;;;;;;;;;5038542;28;20881;-54
2023/04/10 03:47:15;;;;;;;171.85;11.98;;;;;;;;;;5051091;28;20087;-54
2023/04/10 03:49:40;;;;;;;178.48;11.60;;;;;;;;;;5020137;28;20024;-55
2023/04/10 03:52:05;;;;;;;192.68;12.93;;;;;;;;;;5037207;28;20037;-55
2023/04/10 03:54:30;;;;;;;146.00;12.93;;;;;;;;;;5039144;28;20032;-55
2023/04/10 03:56:56;;;;;;;194.98;14.10;;;;;;;;;;5037735;28;20610;-54
2023/04/10 03:59:21;;;;;;;146.88;12.75;;;;;;;;;;5037174;28;20053;-54
2023/04/10 04:01:46;;;;;;;173.68;13.45;;;;;;;;;;5036432;28;20061;-56
2023/04/10 04:04:11;;;;;;;174.40;12.73;;;;;;;;;;5038824;28;20028;-55
2023/04/10 04:06:37;;;;;;;168.40;13.68;;;;;;;;;;5038603;28;20438;-57
2023/04/10 04:09:02;;;;;;;194.68;14.68;;;;;;;;;;5035255;28;20028;-53
2023/04/10 04:11:27;;;;;;;168.80;14.00;;;;;;;;;;5037087;28;20052;-55
2023/04/10 04:13:52;;;;;;;150.35;14.35;;;;;;;;;;5039919;28;20086;-55
2023/04/10 04:16:18;;;;;;;307.63;18.65;;;;;;;;;;5037428;28;20040;-55
2023/04/10 04:18:43;;;;;;;157.75;15.45;;;;;;;;;;5039987;28;20032;-53
2023/04/10 04:21:08;;;;;;;152.25;14.48;;;;;;;;;;5037384;28;20116;-55
2023/04/10 04:23:33;;;;;;;208.10;14.75;;;;;;;;;;5035371;28;20021;-54
2023/04/10 04:25:59;;;;;;;173.32;14.27;;;;;;;;;;5036435;28;20044;-53
2023/04/10 04:28:24;;;;;;;140.57;13.25;;;;;;;;;;5037013;28;20117;-53
2023/04/10 04:30:49;;;;;;;153.20;14.02;;;;;;;;;;5035659;28;20114;-53
2023/04/10 04:33:15;;;;;;;149.95;14.77;;;;;;;;;;5038397;28;20047;-53
2023/04/10 04:35:40;;;;;;;215.13;17.23;;;;;;;;;;5039271;28;20038;-54
2023/04/10 04:38:05;;;;;;;167.88;14.13;;;;;;;;;;5037649;28;20028;-54
2023/04/10 04:40:30;;;;;;;174.07;14.90;;;;;;;;;;5037838;28;20044;-54
2023/04/10 04:42:56;;;;;;;202.13;15.77;;;;;;;;;;5038891;28;20124;-55
2023/04/10 04:45:21;;;;;;;147.88;15.18;;;;;;;;;;5035846;28;20471;-55
2023/04/10 04:47:46;;;;;;;176.27;14.40;;;;;;;;;;5035075;28;20021;-54
2023/04/10 04:50:11;;;;;;;165.50;14.20;;;;;;;;;;5036519;28;20032;-53
2023/04/10 04:52:37;;;;;;;156.82;15.07;;;;;;;;;;5035862;28;20028;-53
2023/04/10 04:55:02;;;;;;;194.38;14.25;;;;;;;;;;5037158;28;20033;-53
2023/04/10 04:57:27;;;;;;;190.40;15.45;;;;;;;;;;5036075;28;20428;-55
2023/04/10 04:59:52;;;;;;;170.52;14.38;;;;;;;;;;5052271;28;20026;-54
2023/04/10 05:02:21;;;;;;;194.50;16.58;;;;;;;;;;5036753;28;20041;-58
2023/04/10 05:04:46;;;;;;;167.80;16.73;;;;;;;;;;5035923;28;20043;-57
2023/04/10 05:07:11;;;;;;;166.23;15.45;;;;;;;;;;5035575;28;20433;-57
2023/04/10 05:09:36;;;;;;;162.27;14.45;;;;;;;;;;5037304;28;20041;-55
2023/04/10 05:12:02;;;;;;;193.55;16.05;;;;;;;;;;5035657;28;20043;-57
2023/04/10 05:14:27;;;;;;;202.43;15.63;;;;;;;;;;5034638;28;20029;-58
2023/04/10 05:16:53;;;;;;;152.70;12.82;;;;;;;;;;5034188;28;20041;-55
2023/04/10 05:19:18;;;;;;;143.55;14.68;;;;;;;;;;5034649;28;20025;-54
2023/04/10 05:21:43;;;;;;;179.45;13.98;;;;;;;;;;5035319;28;20507;-57
2023/04/10 05:24:08;;;;;;;165.40;14.82;;;;;;;;;;5035764;28;20103;-56
2023/04/10 05:26:34;;;;;;;153.23;14.20;;;;;;;;;;5033973;28;20112;-55
2023/04/10 05:28:59;;;;;;;181.13;15.63;;;;;;;;;;5038474;28;20585;-54
2023/04/10 05:31:24;;;;;;;152.80;12.52;;;;;;;;;;5037854;28;20123;-54
2023/04/10 05:33:49;;;;;;;160.73;12.02;;;;;;;;;;5037038;28;20138;-54
2023/04/10 05:36:17;;;;;;;235.30;15.70;;;;;;;;;;5038394;28;20052;-54
2023/04/10 05:38:42;;;;;;;122.55;11.43;;;;;;;;;;5036491;28;20288;-56
2023/04/10 05:41:07;;;;;;;165.23;12.55;;;;;;;;;;5037715;28;20060;-55
2023/04/10 05:43:32;;;;;;;126.65;12.68;;;;;;;;;;5037468;28;20032;-56
2023/04/10 05:45:57;;;;;;;153.00;10.00;;;;;;;;;;5036078;28;20454;-55
2023/04/10 05:48:24;;;;;;;152.10;11.67;;;;;;;;;;5035481;28;20870;-57
2023/04/10 05:50:51;;;;;;;115.32;13.70;;;;;;;;;;5034273;28;20370;-58
2023/04/10 05:53:18;;;;;;;153.32;14.93;;;;;;;;;;5036032;28;20602;-56
2023/04/10 05:55:43;;;;;;;137.48;12.63;;;;;;;;;;5034704;28;20029;-57
2023/04/10 05:58:08;;;;;;;139.47;14.13;;;;;;;;;;5035181;28;20035;-58
2023/04/10 06:00:34;;;;;;;179.77;13.75;;;;;;;;;;5035610;28;20350;-55
2023/04/10 06:02:59;;;;;;;157.75;13.32;;;;;;;;;;5039980;28;20020;-55
2023/04/10 06:05:24;;;;;;;131.73;13.73;;;;;;;;;;5039657;28;20040;-55
2023/04/10 06:07:50;;;;;;;138.38;12.30;;;;;;;;;;5038941;28;20028;-56
2023/04/10 06:10:15;;;;;;;112.93;12.85;;;;;;;;;;5039993;28;20028;-55
2023/04/10 06:12:41;;;;;;;175.23;13.18;;;;;;;;;;5039372;28;20150;-56
2023/04/10 06:15:06;;;;;;;125.30;11.98;;;;;;;;;;5040019;28;20017;-57
2023/04/10 06:17:31;;;;;;;142.68;13.45;;;;;;;;;;5038117;28;20108;-55
2023/04/10 06:19:59;;;;;;;159.63;12.73;;;;;;;;;;5039046;28;20561;-56
2023/04/10 06:22:25;;;;;;;141.85;14.05;;;;;;;;;;5040250;28;20270;-57
2023/04/10 06:24:50;;;;;;;125.32;12.48;;;;;;;;;;5040119;28;20048;-56
2023/04/10 06:27:16;;;;;;;115.50;12.10;;;;;;;;;;5037569;28;20110;-56
2023/04/10 06:29:41;;;;;;;132.75;12.60;;;;;;;;;;5039115;28;20290;-55
2023/04/10 06:32:06;;;;;;;145.90;12.73;;;;;;;;;;5056495;28;20041;-55
2023/04/10 06:34:31;;;;;;;149.07;13.85;;;;;;;;;;5038886;28;20036;-55
2023/04/10 06:36:57;;;;;;;130.47;13.10;;;;;;;;;;5038048;28;20035;-58
2023/04/10 06:39:22;;;;;;;132.63;12.57;;;;;;;;;;5040053;28;20314;-55
2023/04/10 06:41:47;;;;;;;134.93;13.80;;;;;;;;;;5039253;28;20581;-55
2023/04/10 06:44:13;;;;;;;125.97;12.70;;;;;;;;;;5039466;28;20094;-55
2023/04/10 06:46:38;;;;;;;128.83;12.30;;;;;;;;;;5039127;28;20259;-55
2023/04/10 06:49:03;;;;;;;170.17;14.10;;;;;;;;;;5040242;28;20255;-57
2023/04/10 06:51:28;;;;;;;131.10;11.93;;;;;;;;;;5038739;28;20284;-55
2023/04/10 06:53:53;;;;;;;119.10;12.90;;;;;;;;;;5040213;28;20730;-57
2023/04/10 06:56:19;;;;;;;154.27;12.80;;;;;;;;;;5037599;28;20840;-55
2023/04/10 06:58:45;;;;;;;115.53;11.98;;;;;;;;;;5037580;28;20641;-56
2023/04/10 07:01:10;;;;;;;154.87;13.60;;;;;;;;;;5039399;28;20064;-56
2023/04/10 07:03:35;;;;;;;98.00;11.80;;;;;;;;;;5032902;28;20904;-59
2023/04/10 07:06:02;;;;;;;262.13;17.67;;;;;;;;;;5029545;28;20264;-55
2023/04/10 07:08:27;;;;;;;133.10;12.00;;;;;;;;;;5022601;28;20252;-57
2023/04/10 07:10:52;;;;;;;108.03;12.20;;;;;;;;;;5036118;28;20044;-59
2023/04/10 07:13:17;;;;;;;90.23;11.60;;;;;;;;;;5038991;28;20071;-59
2023/04/10 07:15:43;;;;;;;104.03;12.50;;;;;;;;;;5038869;28;20120;-58
2023/04/10 07:18:08;;;;;;;110.33;12.47;;;;;;;;;;5040556;28;20021;-57
2023/04/10 07:20:33;;;;;;;85.97;9.47;;;;;;;;;;5041685;28;20272;-60
2023/04/10 07:22:58;;;;;;;82.70;11.60;;;;;;;;;;5024595;28;20037;-58
2023/04/10 07:25:24;;;;;;;113.32;12.75;;;;;;;;;;5041692;28;20044;-57
2023/04/10 07:27:49;;;;;;;84.25;10.05;;;;;;;;;;5038716;28;20021;-56
2023/04/10 07:30:14;;;;;;;98.13;10.93;;;;;;;;;;5040431;28;20097;-59
2023/04/10 07:32:41;;;;;;;98.93;11.48;;;;;;;;;;5042010;28;20892;-57
2023/04/10 07:35:06;;;;;;;88.22;11.48;;;;;;;;;;5040499;28;20049;-59
2023/04/10 07:37:31;;;;;;;112.95;9.45;;;;;;;;;;5039645;28;20650;-58
2023/04/10 07:39:57;;;;;;;96.40;11.20;;;;;;;;;;5040540;28;20032;-60
2023/04/10 07:42:22;;;;;;;93.40;10.15;;;;;;;;;;5040658;28;20845;-60
2023/04/10 07:44:47;;;;;;;126.03;12.17;;;;;;;;;;5042263;28;20039;-60
2023/04/10 07:47:13;;;;;;;212.43;15.63;;;;;;;;;;5037561;28;20334;-56
2023/04/10 07:49:38;;;;;;;166.32;12.85;;;;;;;;;;5033622;28;20350;-57
2023/04/10 07:52:03;;;;;;;79.40;9.80;;;;;;;;;;5037494;28;20086;-58
2023/04/10 07:54:35;;;;;;;98.80;10.67;;;;;;;;;;5036341;28;20354;-57
2023/04/10 07:57:00;;;;;;;148.15;12.95;;;;;;;;;;5037836;28;20696;-55
2023/04/10 07:59:28;;;;;;;102.10;11.23;;;;;;;;;;5040412;28;20066;-56
2023/04/10 08:01:54;;;;;;;111.35;12.10;;;;;;;;;;5039185;28;20351;-58
2023/04/10 08:04:19;;;;;;;114.28;11.13;;;;;;;;;;5054446;28;20017;-58
2023/04/10 08:06:44;;;;;;;129.53;12.43;;;;;;;;;;5040408;28;20039;-59
2023/04/10 08:09:09;;;;;;;143.17;12.97;;;;;;;;;;5039445;28;20100;-55
2023/04/10 08:11:35;;;;;;;111.07;10.03;;;;;;;;;;5040708;28;20127;-59
2023/04/10 08:14:01;;;;;;;113.28;11.00;;;;;;;;;;5039911;28;20037;-59
2023/04/10 08:16:28;;;;;;;174.68;13.07;;;;;;;;;;5033795;28;20041;-56
2023/04/10 08:18:53;;;;;;;145.00;12.02;;;;;;;;;;5036626;28;20491;-56
2023/04/10 08:23:54;;;;;;;118.60;11.63;;;;;;;;;;5608507;23;20745;-60
2023/04/10 08:26:20;;;;;;;72.95;9.48;;;;;;;;;;4971991;28;20543;-61
2023/04/10 08:28:48;;;;;;;89.75;10.15;;;;;;;;;;4992502;28;20029;-60
2023/04/10 08:31:13;;;;;;;67.70;8.27;;;;;;;;;;4997246;28;20044;-58
2023/04/10 08:33:38;;;;;;;94.40;10.68;;;;;;;;;;4995387;28;20475;-59
2023/04/10 08:36:05;;;;;;;116.77;11.27;;;;;;;;;;4994661;28;20555;-60
2023/04/10 08:38:30;;;;;;;94.50;10.77;;;;;;;;;;4994882;28;20277;-58
2023/04/10 08:40:56;;;;;;;118.77;11.93;;;;;;;;;;4998304;28;20052;-59
2023/04/10 08:43:21;;;;;;;87.80;11.52;;;;;;;;;;4995261;28;21077;-57
2023/04/10 08:45:47;;;;;;;95.30;10.17;;;;;;;;;;4996141;28;20038;-60
2023/04/10 08:48:13;;;;;;;97.45;10.65;;;;;;;;;;5000584;28;20866;-59
2023/04/10 08:50:40;;;;;;;78.38;8.88;;;;;;;;;;4998982;28;20042;-59
2023/04/10 08:53:09;;;;;;;160.05;14.82;;;;;;;;;;4999557;28;20420;-61
2023/04/10 08:55:34;;;;;;;83.07;11.10;;;;;;;;;;4999115;28;20034;-62
2023/04/10 08:58:00;;;;;;;110.95;12.35;;;;;;;;;;4997823;28;20028;-62
2023/04/10 09:00:25;;;;;;;92.53;10.82;;;;;;;;;;4997018;28;20049;-61
2023/04/10 09:02:56;;;;;;;85.40;10.32;;;;;;;;;;4997266;28;20025;-62
2023/04/10 09:05:22;;;;;;;92.88;11.27;;;;;;;;;;4994570;28;20684;-61
2023/04/10 09:07:48;;;;;;;92.18;11.05;;;;;;;;;;4996784;28;20026;-61
2023/04/10 09:10:13;;;;;;;113.40;11.38;;;;;;;;;;4994640;28;20038;-63
2023/04/10 09:12:45;;;;;;;107.90;11.23;;;;;;;;;;4998397;28;20480;-61
2023/04/10 09:15:10;;;;;;;81.80;10.35;;;;;;;;;;4993560;28;20026;-62
2023/04/10 09:17:35;;;;;;;81.65;10.07;;;;;;;;;;4997330;28;20107;-60
2023/04/10 09:20:08;;;;;;;80.93;9.73;;;;;;;;;;4995913;28;20081;-62
2023/04/10 09:22:34;;;;;;;94.47;8.23;;;;;;;;;;5000413;28;20120;-61
2023/04/10 09:25:00;;;;;;;95.75;9.93;;;;;;;;;;4995348;28;20040;-62
2023/04/10 09:27:27;;;;;;;77.53;9.63;;;;;;;;;;5000220;28;20118;-61
2023/04/10 09:29:52;;;;;;;90.25;9.80;;;;;;;;;;4998031;28;20030;-61
2023/04/10 09:32:36;;;;;;;85.05;10.35;;;;;;;;;;4991904;28;20038;-60
2023/04/10 09:35:01;;;;;;;77.88;8.85;;;;;;;;;;4995845;28;20013;-58
2023/04/10 09:37:33;;;;;;;91.90;10.33;;;;;;;;;;5000844;28;20112;-62
2023/04/10 09:39:58;;;;;;;103.07;11.35;;;;;;;;;;4995643;28;20256;-60
2023/04/10 09:42:33;;;;;;;93.65;10.27;;;;;;;;;;4997506;28;20060;-61
2023/04/10 09:45:00;;;;;;;96.75;10.88;;;;;;;;;;4997484;28;20030;-61
2023/04/10 09:47:26;;;;;;;101.53;9.80;;;;;;;;;;4999981;28;20101;-62
2023/04/10 09:49:59;;;;;;;78.78;9.40;;;;;;;;;;5003218;28;20026;-61
2023/04/10 09:52:27;;;;;;;89.55;8.80;;;;;;;;;;4996176;28;20533;-60
2023/04/10 09:54:54;;;;;;;92.18;10.75;;;;;;;;;;4994491;28;20022;-61
2023/04/10 09:57:20;;;;;;;100.80;10.77;;;;;;;;;;4993969;28;20065;-60
2023/04/10 09:59:51;;;;;;;88.53;10.63;;;;;;;;;;4999167;28;20018;-60
2023/04/10 10:02:17;;;;;;;135.70;11.52;;;;;;;;;;4999382;28;20397;-63
2023/04/10 10:04:43;;;;;;;165.20;13.32;;;;;;;;;;4984906;28;20029;-62
2023/04/10 10:07:08;;;;;;;103.20;10.48;;;;;;;;;;4992839;28;20030;-61
2023/04/10 10:09:35;;;;;;;109.57;8.47;;;;;;;;;;4993115;28;20025;-59
2023/04/10 10:12:02;;;;;;;128.77;10.60;;;;;;;;;;4995091;28;20289;-59
2023/04/10 10:14:28;;;;;;;92.10;9.25;;;;;;;;;;4994805;28;20113;-60
2023/04/10 10:16:55;;;;;;;85.78;8.65;;;;;;;;;;4992903;28;20113;-58
2023/04/10 10:19:24;;;;;;;93.78;9.27;;;;;;;;;;4993848;28;20022;-58
2023/04/10 10:21:50;;;;;;;126.05;9.38;;;;;;;;;;4992237;28;20034;-58
2023/04/10 10:24:18;;;;;;;114.55;8.77;;;;;;;;;;4993343;28;20110;-59
2023/04/10 10:26:43;;;;;;;125.22;10.10;;;;;;;;;;4997625;28;20048;-56
2023/04/10 10:29:12;;;;;;;125.55;10.48;;;;;;;;;;4996507;28;20018;-58
2023/04/10 10:31:38;;;;;;;109.70;10.10;;;;;;;;;;4993616;28;20073;-56
2023/04/10 10:34:06;;;;;;;119.50;9.90;;;;;;;;;;4993416;28;20291;-57
2023/04/10 10:36:32;;;;;;;153.65;11.38;;;;;;;;;;4998439;28;20064;-55
2023/04/10 10:39:00;;;;;;;173.73;11.93;;;;;;;;;;4996408;28;20111;-57
2023/04/10 10:41:31;;;;;;;137.27;10.32;;;;;;;;;;4992827;28;20625;-59
2023/04/10 10:44:11;;;;;;;146.75;11.20;;;;;;;;;;4993515;28;20037;-57
2023/04/10 10:46:42;;;;;;;86.97;7.65;;;;;;;;;;4994671;28;20414;-56
2023/04/10 10:49:07;;;;;;;110.25;9.38;;;;;;;;;;4995447;28;20080;-56
2023/04/10 10:51:46;;;;;;;83.47;8.57;;;;;;;;;;5002621;28;20049;-57
2023/04/10 10:54:31;;;;;;;128.60;10.52;;;;;;;;;;4995938;28;20030;-56
2023/04/10 10:56:56;;;;;;;101.07;8.50;;;;;;;;;;4996013;28;20057;-57
2023/04/10 10:59:40;;;;;;;101.82;7.80;;;;;;;;;;4995609;28;20392;-58
2023/04/10 11:02:14;;;;;;;137.93;10.85;;;;;;;;;;4996435;28;20399;-59
2023/04/10 11:04:44;;;;;;;118.47;10.38;;;;;;;;;;4992485;28;20448;-57
2023/04/10 11:07:10;;;;;;;109.30;9.93;;;;;;;;;;4997141;28;20108;-57
2023/04/10 11:09:51;;;;;;;111.75;9.77;;;;;;;;;;4999150;28;20048;-59
2023/04/10 11:12:23;;;;;;;131.88;10.27;;;;;;;;;;4994691;28;20035;-58
2023/04/10 11:14:57;;;;;;;146.18;10.68;;;;;;;;;;4993937;28;20602;-59
2023/04/10 11:17:41;;;;;;;94.75;9.77;;;;;;;;;;4996305;28;20125;-58
2023/04/10 11:20:07;;;;;;;133.38;10.05;;;;;;;;;;4994996;28;20033;-59
2023/04/10 11:22:52;;;;;;;117.38;7.50;;;;;;;;;;4996297;28;20034;-57
2023/04/10 11:25:17;;;;;;;91.20;7.22;;;;;;;;;;4997077;28;20033;-57
2023/04/10 11:27:50;;;;;;;72.85;6.20;;;;;;;;;;4996464;28;20328;-60
2023/04/10 11:30:32;;;;;;;100.90;8.00;;;;;;;;;;4994998;28;20053;-58
2023/04/10 11:32:58;;;;;;;216.55;12.80;;;;;;;;;;4996739;28;20121;-57
2023/04/10 11:35:24;;;;;;;123.90;10.02;;;;;;;;;;4987483;28;20057;-59
2023/04/10 11:37:50;;;;;;;133.13;10.23;;;;;;;;;;4995651;28;20018;-58
2023/04/10 11:40:16;;;;;;;146.75;10.52;;;;;;;;;;4997137;28;20029;-58
2023/04/10 11:42:41;;;;;;;135.80;10.63;;;;;;;;;;4997634;28;20048;-58
2023/04/10 11:45:26;;;;;;;125.43;9.38;;;;;;;;;;4994319;28;20086;-58
2023/04/10 11:47:52;;;;;;;126.55;9.65;;;;;;;;;;4995219;28;20041;-56
2023/04/10 11:50:17;;;;;;;105.57;9.07;;;;;;;;;;4995552;28;20037;-56
2023/04/10 11:52:43;;;;;;;79.07;8.10;;;;;;;;;;4997021;28;20097;-58
2023/04/10 11:55:08;;;;;;;103.82;8.52;;;;;;;;;;4992995;28;20030;-58
2023/04/10 11:57:34;;;;;;;110.23;9.00;;;;;;;;;;4995720;28;20025;-58
2023/04/10 11:59:59;;;;;;;106.90;9.27;;;;;;;;;;4998347;28;20253;-57
2023/04/10 12:02:24;;;;;;;91.80;8.17;;;;;;;;;;4996860;28;20068;-58
2023/04/10 12:04:56;;;;;;;94.97;7.95;;;;;;;;;;4995679;28;20570;-58
2023/04/10 12:07:22;;;;;;;114.53;8.82;;;;;;;;;;4997182;28;20111;-59
2023/04/10 12:09:54;;;;;;;97.82;8.38;;;;;;;;;;4996728;28;20038;-65
2023/04/10 12:12:33;;;;;;;124.38;9.43;;;;;;;;;;4998937;28;20022;-60
2023/04/10 12:14:58;;;;;;;131.05;10.07;;;;;;;;;;4994591;28;20022;-61
2023/04/10 12:17:23;;;;;;;104.80;8.80;;;;;;;;;;4993471;28;20374;-58
2023/04/10 12:19:49;;;;;;;153.35;9.88;;;;;;;;;;4995009;28;20252;-64
2023/04/10 12:22:14;;;;;;;133.77;9.20;;;;;;;;;;4995500;28;20076;-63
2023/04/10 12:24:46;;;;;;;157.30;9.57;;;;;;;;;;4994465;28;20034;-63
2023/04/10 12:27:25;;;;;;;140.40;9.55;;;;;;;;;;4998996;28;20042;-62
2023/04/10 12:29:52;;;;;;;112.85;8.65;;;;;;;;;;4996978;28;20040;-61
2023/04/10 12:32:17;;;;;;;88.53;7.95;;;;;;;;;;4994538;28;20030;-60
2023/04/10 12:34:49;;;;;;;129.68;9.95;;;;;;;;;;4990863;28;20105;-60
2023/04/10 12:37:15;;;;;;;118.97;9.00;;;;;;;;;;4995078;28;20034;-62
2023/04/10 12:39:40;;;;;;;110.05;8.60;;;;;;;;;;4992841;28;20435;-59
2023/04/10 12:42:13;;;;;;;102.07;8.47;;;;;;;;;;4998422;28;20776;-61
2023/04/10 12:44:51;;;;;;;124.57;8.90;;;;;;;;;;4995192;28;20249;-61
2023/04/10 12:47:16;;;;;;;133.75;10.02;;;;;;;;;;4995486;28;20195;-61
2023/04/10 12:49:42;;;;;;;151.68;9.98;;;;;;;;;;4991870;28;20025;-61
2023/04/10 12:52:07;;;;;;;145.30;8.70;;;;;;;;;;4994056;28;20560;-61
2023/04/10 12:54:33;;;;;;;133.10;9.30;;;;;;;;;;4989323;28;20248;-62
2023/04/10 12:56:59;;;;;;;130.68;9.43;;;;;;;;;;4996969;28;20124;-59
2023/04/10 12:59:25;;;;;;;140.38;9.38;;;;;;;;;;4993901;28;20040;-59
2023/04/10 13:01:51;;;;;;;142.57;9.05;;;;;;;;;;4991531;28;20126;-62
2023/04/10 13:04:17;;;;;;;136.68;9.13;;;;;;;;;;4995508;28;20049;-61
2023/04/10 13:06:46;;;;;;;170.82;10.20;;;;;;;;;;4995539;28;20038;-61
2023/04/10 13:09:14;;;;;;;117.75;8.60;;;;;;;;;;4994756;28;20056;-61
2023/04/10 13:11:40;;;;;;;129.27;8.50;;;;;;;;;;4992239;28;20401;-62
2023/04/10 13:14:06;;;;;;;129.30;9.00;;;;;;;;;;4993417;28;20080;-60
2023/04/10 13:16:31;;;;;;;163.55;9.95;;;;;;;;;;4993917;28;20097;-58
2023/04/10 13:18:56;;;;;;;181.55;9.88;;;;;;;;;;5009898;28;20045;-61
2023/04/10 13:21:24;;;;;;;143.83;9.43;;;;;;;;;;4994782;28;20481;-60
2023/04/10 13:23:50;;;;;;;134.48;9.18;;;;;;;;;;4999135;28;20343;-63
2023/04/10 13:26:15;;;;;;;138.23;9.25;;;;;;;;;;4991371;28;20625;-59
2023/04/10 13:28:40;;;;;;;136.90;8.95;;;;;;;;;;4991773;28;20069;-59
2023/04/10 13:31:06;;;;;;;147.93;9.95;;;;;;;;;;4992246;28;20521;-59
2023/04/10 13:33:31;;;;;;;174.60;10.48;;;;;;;;;;4994249;28;20037;-58
2023/04/10 13:35:56;;;;;;;149.47;9.33;;;;;;;;;;4992090;28;20035;-58
2023/04/10 13:38:21;;;;;;;144.20;9.57;;;;;;;;;;4996575;28;20499;-61
2023/04/10 13:40:47;;;;;;;110.05;8.38;;;;;;;;;;4995010;28;20265;-59
2023/04/10 13:43:12;;;;;;;126.93;8.83;;;;;;;;;;4994279;28;20075;-59
2023/04/10 13:45:37;;;;;;;85.35;6.40;;;;;;;;;;4996491;28;20260;-59
2023/04/10 13:48:05;;;;;;;115.82;8.10;;;;;;;;;;4996353;28;20062;-61
2023/04/10 13:50:31;;;;;;;132.32;8.57;;;;;;;;;;4990343;28;20056;-61
2023/04/10 13:52:56;;;;;;;128.98;8.77;;;;;;;;;;4996041;28;20026;-62
2023/04/10 13:55:21;;;;;;;85.87;6.50;;;;;;;;;;4991824;28;20268;-60
2023/04/10 13:57:47;;;;;;;83.18;6.95;;;;;;;;;;4993946;28;20009;-61
2023/04/10 14:00:12;;;;;;;83.40;7.27;;;;;;;;;;4994617;28;20076;-60
2023/04/10 14:02:37;;;;;;;107.97;7.82;;;;;;;;;;4993156;28;20262;-59
2023/04/10 14:05:03;;;;;;;91.22;7.20;;;;;;;;;;4990409;28;20106;-60
2023/04/10 14:07:28;;;;;;;113.20;7.53;;;;;;;;;;4993419;28;20120;-60
2023/04/10 14:09:53;;;;;;;145.93;8.93;;;;;;;;;;4993897;28;20318;-60